createdAt,value
2023-04-28T00:01:14.129Z,0.73
2023-04-28T00:03:42.568Z,1.15
2023-04-28T00:08:40.975Z,0.95
2023-04-28T00:11:11.466Z,1.23
2023-04-28T00:13:39.746Z,1.85
2023-04-28T00:16:08.448Z,1.05
2023-04-28T00:18:36.761Z,1.08
2023-04-28T00:21:05.103Z,0.77
2023-04-28T00:23:33.586Z,1.25
2023-04-28T00:26:03.365Z,0.90
2023-04-28T00:28:34.670Z,0.90
2023-04-28T00:31:03.716Z,1.20
2023-04-28T00:33:31.982Z,1.25
2023-04-28T00:36:03.386Z,0.82
2023-04-28T00:38:31.671Z,2.05
2023-04-28T00:41:00.158Z,1.45
2023-04-28T00:43:29.813Z,1.00
2023-04-28T00:45:58.171Z,0.57
2023-04-28T00:48:26.483Z,1.08
2023-04-28T00:50:54.767Z,0.68
2023-04-28T00:53:23.135Z,0.80
2023-04-28T00:55:52.946Z,1.00
2023-04-28T00:58:21.291Z,1.45
2023-04-28T01:00:51.033Z,0.52
2023-04-28T01:03:19.642Z,1.02
2023-04-28T01:05:48.085Z,1.13
2023-04-28T01:08:16.388Z,0.80
2023-04-28T01:10:46.152Z,0.82
2023-04-28T01:13:14.534Z,0.80
2023-04-28T01:15:42.799Z,0.52
2023-04-28T01:18:13.404Z,0.90
2023-04-28T01:20:41.698Z,0.57
2023-04-28T01:23:13.678Z,1.05
2023-04-28T01:25:43.908Z,1.10
2023-04-28T01:28:12.804Z,0.80
2023-04-28T01:30:41.124Z,0.60
2023-04-28T01:33:09.556Z,0.80
2023-04-28T01:35:37.866Z,1.00
2023-04-28T01:38:06.208Z,2.03
2023-04-28T01:40:34.517Z,0.77
2023-04-28T01:43:04.187Z,1.13
2023-04-28T01:45:32.451Z,0.80
2023-04-28T01:48:00.813Z,0.68
2023-04-28T01:50:29.162Z,0.70
2023-04-28T01:52:57.447Z,0.70
2023-04-28T01:55:25.965Z,0.52
2023-04-28T01:57:54.248Z,1.02
2023-04-28T02:00:24.108Z,0.80
2023-04-28T02:02:52.757Z,0.60
2023-04-28T02:05:21.201Z,0.70
2023-04-28T02:07:49.500Z,0.60
2023-04-28T02:10:17.863Z,0.93
2023-04-28T02:12:46.177Z,0.20
2023-04-28T02:15:14.492Z,0.52
2023-04-28T02:17:44.283Z,0.60
2023-04-28T02:20:14.347Z,0.57
2023-04-28T02:22:42.665Z,0.40
2023-04-28T02:25:11.293Z,0.77
2023-04-28T02:27:39.629Z,0.50
2023-04-28T02:30:08.519Z,0.85
2023-04-28T02:32:37.028Z,0.40
2023-04-28T02:35:07.176Z,0.40
2023-04-28T02:37:35.464Z,0.30
2023-04-28T02:40:03.781Z,0.30
2023-04-28T02:42:32.074Z,0.40
2023-04-28T02:45:00.470Z,0.57
2023-04-28T02:47:28.796Z,0.45
2023-04-28T02:49:57.126Z,0.68
2023-04-28T02:52:26.777Z,0.60
2023-04-28T02:54:57.476Z,0.30
2023-04-28T02:57:26.178Z,0.82
2023-04-28T02:59:54.571Z,0.73
2023-04-28T03:02:23.727Z,0.47
2023-04-28T03:04:52.127Z,0.55
2023-04-28T03:07:20.478Z,0.90
2023-04-28T03:09:50.135Z,0.50
2023-04-28T03:12:18.399Z,0.40
2023-04-28T03:14:46.684Z,0.47
2023-04-28T03:17:15.211Z,0.38
2023-04-28T03:19:43.529Z,0.60
2023-04-28T03:22:11.945Z,0.45
2023-04-28T03:24:40.216Z,0.30
2023-04-28T03:27:09.852Z,0.40
2023-04-28T03:29:38.122Z,0.40
2023-04-28T03:32:06.787Z,1.00
2023-04-28T03:34:35.082Z,0.30
2023-04-28T03:37:03.356Z,0.60
2023-04-28T03:39:31.798Z,0.70
2023-04-28T03:42:00.141Z,0.40
2023-04-28T03:44:29.835Z,0.55
2023-04-28T03:46:58.278Z,0.52
2023-04-28T03:49:26.583Z,0.30
2023-04-28T03:51:54.865Z,0.63
2023-04-28T03:54:23.150Z,0.40
2023-04-28T03:56:51.687Z,0.50
2023-04-28T03:59:19.982Z,0.32
2023-04-28T04:01:49.732Z,0.38
2023-04-28T04:04:18.562Z,0.35
2023-04-28T04:06:47.148Z,0.68
2023-04-28T04:09:15.443Z,0.32
2023-04-28T04:11:43.734Z,0.50
2023-04-28T04:14:12.145Z,0.68
2023-04-28T04:16:41.204Z,0.88
2023-04-28T04:19:11.070Z,0.30
2023-04-28T04:21:39.382Z,0.50
2023-04-28T04:24:08.078Z,0.57
2023-04-28T04:26:36.359Z,0.35
2023-04-28T04:29:04.686Z,0.80
2023-04-28T04:31:33.086Z,0.80
2023-04-28T04:34:01.872Z,0.47
2023-04-28T04:36:32.920Z,0.45
2023-04-28T04:39:01.221Z,0.40
2023-04-28T04:41:29.517Z,0.45
2023-04-28T04:43:57.855Z,0.80
2023-04-28T04:46:26.885Z,1.15
2023-04-28T04:48:55.236Z,0.60
2023-04-28T04:51:23.530Z,0.70
2023-04-28T04:53:55.867Z,0.47
2023-04-28T04:56:24.180Z,0.70
2023-04-28T04:58:52.735Z,0.63
2023-04-28T05:01:21.162Z,0.57
2023-04-28T05:03:49.661Z,0.60
2023-04-28T05:06:18.165Z,0.55
2023-04-28T05:08:46.492Z,0.70
2023-04-28T05:11:16.321Z,0.82
2023-04-28T05:13:44.680Z,0.75
2023-04-28T05:16:13.066Z,0.82
2023-04-28T05:18:41.438Z,0.52
2023-04-28T05:21:11.751Z,0.60
2023-04-28T05:23:40.098Z,0.50
2023-04-28T05:26:08.420Z,0.57
2023-04-28T05:28:38.084Z,0.70
2023-04-28T05:31:06.559Z,0.82
2023-04-28T05:33:34.868Z,0.57
2023-04-28T05:36:03.142Z,1.80
2023-04-28T05:38:33.862Z,0.80
2023-04-28T05:41:02.897Z,1.08
2023-04-28T05:43:31.328Z,0.73
2023-04-28T05:46:01.283Z,0.70
2023-04-28T05:48:29.630Z,0.95
2023-04-28T05:50:58.205Z,0.60
2023-04-28T05:53:26.830Z,0.70
2023-04-28T05:55:55.203Z,1.00
2023-04-28T05:58:23.497Z,0.65
2023-04-28T06:00:52.088Z,0.60
2023-04-28T06:03:21.929Z,0.85
2023-04-28T06:05:50.762Z,0.70
2023-04-28T06:08:19.112Z,0.75
2023-04-28T06:10:47.404Z,0.45
2023-04-28T06:13:15.729Z,0.90
2023-04-28T06:15:44.052Z,0.52
2023-04-28T06:18:12.460Z,0.57
2023-04-28T06:20:42.189Z,0.63
2023-04-28T06:23:10.616Z,0.82
2023-04-28T06:25:38.915Z,0.50
2023-04-28T06:28:07.991Z,0.93
2023-04-28T06:30:36.941Z,0.93
2023-04-28T06:33:05.454Z,0.63
2023-04-28T06:35:35.773Z,0.70
2023-04-28T06:38:05.688Z,0.50
2023-04-28T06:40:34.096Z,0.73
2023-04-28T06:43:02.631Z,0.43
2023-04-28T06:45:31.019Z,0.38
2023-04-28T06:47:59.380Z,0.40
2023-04-28T06:50:27.784Z,0.43
2023-04-28T06:52:56.079Z,0.73
2023-04-28T06:55:25.944Z,0.40
2023-04-28T06:57:54.243Z,1.77
2023-04-28T07:00:22.693Z,1.02
2023-04-28T07:02:51.152Z,2.05
2023-04-28T07:05:19.620Z,1.25
2023-04-28T07:07:47.907Z,0.57
2023-04-28T07:10:16.306Z,0.70
2023-04-28T07:12:46.136Z,0.25
2023-04-28T07:15:14.490Z,1.10
2023-04-28T07:17:42.906Z,0.45
2023-04-28T07:20:11.648Z,0.35
2023-04-28T07:22:40.109Z,0.70
2023-04-28T07:25:08.589Z,0.40
2023-04-28T07:27:37.014Z,0.70
2023-04-28T07:30:22.792Z,0.30
2023-04-28T07:32:54.723Z,0.40
2023-04-28T07:35:23.737Z,0.32
2023-04-28T07:37:52.452Z,0.30
2023-04-28T07:40:21.082Z,0.30
2023-04-28T07:42:49.464Z,0.20
2023-04-28T07:45:19.142Z,0.22
2023-04-28T07:47:47.645Z,0.45
2023-04-28T07:50:16.235Z,0.60
2023-04-28T07:52:44.686Z,0.30
2023-04-28T07:55:13.056Z,0.50
2023-04-28T07:57:42.417Z,0.40
2023-04-28T08:00:11.495Z,0.57
2023-04-28T08:02:41.367Z,0.20
2023-04-28T08:05:10.802Z,0.40
2023-04-28T08:07:39.477Z,0.40
2023-04-28T08:10:09.018Z,0.22
2023-04-28T08:12:37.348Z,0.20
2023-04-28T08:15:06.027Z,0.30
2023-04-28T08:17:34.548Z,0.52
2023-04-28T08:20:04.384Z,0.40
2023-04-28T08:22:32.695Z,0.30
2023-04-28T08:25:01.022Z,0.35
2023-04-28T08:27:29.474Z,0.28
2023-04-28T08:29:57.778Z,0.30
2023-04-28T08:32:26.138Z,0.70
2023-04-28T08:34:54.493Z,0.45
2023-04-28T08:37:24.851Z,0.77
2023-04-28T08:40:01.898Z,0.50
2023-04-28T08:42:31.337Z,0.50
2023-04-28T08:45:00.492Z,0.65
2023-04-28T08:47:34.033Z,0.30
2023-04-28T08:50:04.508Z,0.20
2023-04-28T08:52:34.497Z,0.50
2023-04-28T08:55:03.805Z,0.75
2023-04-28T08:57:35.619Z,0.20
2023-04-28T09:00:04.151Z,0.30
2023-04-28T09:02:32.728Z,0.43
2023-04-28T09:05:01.692Z,0.30
2023-04-28T09:07:30.316Z,0.63
2023-04-28T09:10:16.525Z,0.40
2023-04-28T09:12:46.658Z,0.32
2023-04-28T09:15:27.252Z,0.55
2023-04-28T09:17:56.001Z,0.22
2023-04-28T09:20:24.877Z,0.38
2023-04-28T09:22:53.985Z,0.32
2023-04-28T09:25:23.126Z,0.40
2023-04-28T09:27:52.913Z,0.30
2023-04-28T09:30:21.373Z,0.13
2023-04-28T09:33:05.824Z,0.30
2023-04-28T09:35:43.450Z,0.40
2023-04-28T09:38:11.777Z,0.40
2023-04-28T09:40:51.349Z,0.30
2023-04-28T09:43:28.771Z,0.50
2023-04-28T09:45:57.566Z,0.40
2023-04-28T09:48:29.822Z,0.10
2023-04-28T09:50:59.444Z,0.38
2023-04-28T09:53:27.877Z,0.85
2023-04-28T09:55:57.100Z,0.22
2023-04-28T09:58:25.883Z,0.13
2023-04-28T10:00:56.496Z,0.43
2023-04-28T10:03:27.719Z,0.50
2023-04-28T10:05:58.511Z,0.40
2023-04-28T10:08:28.240Z,0.20
2023-04-28T10:10:57.891Z,0.98
2023-04-28T10:13:26.482Z,0.20
2023-04-28T10:15:58.489Z,0.13
2023-04-28T10:18:27.419Z,0.20
2023-04-28T10:20:58.476Z,0.20
2023-04-28T10:23:48.123Z,0.13
2023-04-28T10:26:18.410Z,0.30
2023-04-28T10:28:48.562Z,0.30
2023-04-28T10:31:21.278Z,0.38
2023-04-28T10:33:50.574Z,0.30
2023-04-28T10:36:42.797Z,0.40
2023-04-28T10:39:12.162Z,0.32
2023-04-28T10:41:40.824Z,0.20
2023-04-28T10:44:33.180Z,0.20
2023-04-28T10:47:04.018Z,0.10
2023-04-28T10:49:47.175Z,0.45
2023-04-28T10:52:30.400Z,0.30
2023-04-28T10:55:22.004Z,0.10
2023-04-28T10:58:14.559Z,0.05
2023-04-28T11:00:43.495Z,0.20
2023-04-28T11:03:33.631Z,0.35
2023-04-28T11:06:16.950Z,0.30
2023-04-28T11:08:45.290Z,0.47
2023-04-28T11:11:14.614Z,0.30
2023-04-28T11:13:43.302Z,0.20
2023-04-28T11:16:11.728Z,0.10
2023-04-28T11:18:55.867Z,0.28
2023-04-28T11:21:25.019Z,0.30
2023-04-28T11:23:53.493Z,0.22
2023-04-28T11:26:23.589Z,0.40
2023-04-28T11:28:52.990Z,0.65
2023-04-28T11:31:23.506Z,0.43
2023-04-28T11:33:55.879Z,0.38
2023-04-28T11:36:24.957Z,0.30
2023-04-28T11:38:53.267Z,0.22
2023-04-28T11:41:21.673Z,0.28
2023-04-28T11:43:50.100Z,0.15
2023-04-28T11:46:19.245Z,0.22
2023-04-28T11:48:48.029Z,0.20
2023-04-28T11:51:34.354Z,0.22
2023-04-28T11:54:03.635Z,0.10
2023-04-28T11:56:32.174Z,0.28
2023-04-28T11:59:04.521Z,0.05
2023-04-28T12:01:33.441Z,0.03
2023-04-28T12:04:01.970Z,0.15
2023-04-28T12:06:30.827Z,0.20
2023-04-28T12:09:04.487Z,0.13
2023-04-28T12:11:32.940Z,0.17
2023-04-28T12:14:08.637Z,0.10
2023-04-28T12:16:43.358Z,0.28
2023-04-28T12:19:11.983Z,0.28
2023-04-28T12:21:41.122Z,0.50
2023-04-28T12:24:21.603Z,0.20
2023-04-28T12:26:50.278Z,0.20
2023-04-28T12:29:38.218Z,0.10
2023-04-28T12:32:07.262Z,0.63
2023-04-28T12:34:36.155Z,0.60
2023-04-28T12:37:05.695Z,0.35
2023-04-28T12:39:38.697Z,0.10
2023-04-28T12:42:08.012Z,0.20
2023-04-28T12:44:36.908Z,0.35
2023-04-28T12:47:05.978Z,0.77
2023-04-28T12:49:34.820Z,0.15
2023-04-28T12:52:03.556Z,0.10
2023-04-28T12:54:31.908Z,0.30
2023-04-28T12:57:01.702Z,0.20
2023-04-28T12:59:30.064Z,0.35
2023-04-28T13:01:59.024Z,0.60
2023-04-28T13:04:27.749Z,0.40
2023-04-28T13:06:58.457Z,0.20
2023-04-28T13:09:27.377Z,0.10
2023-04-28T13:11:55.715Z,0.30
2023-04-28T13:14:25.422Z,0.38
2023-04-28T13:16:54.116Z,0.30
2023-04-28T13:19:22.530Z,0.22
2023-04-28T13:21:50.928Z,0.30
2023-04-28T13:24:19.241Z,0.22
2023-04-28T13:26:47.587Z,0.10
2023-04-28T13:29:15.969Z,0.10
2023-04-28T13:31:46.245Z,0.25
2023-04-28T13:34:16.392Z,0.20
2023-04-28T13:36:45.739Z,0.10
2023-04-28T13:39:14.905Z,0.13
2023-04-28T13:41:43.396Z,0.10
2023-04-28T13:44:11.655Z,0.32
2023-04-28T13:46:40.054Z,0.40
2023-04-28T13:49:09.782Z,0.20
2023-04-28T13:51:38.875Z,0.20
2023-04-28T13:54:08.896Z,0.13
2023-04-28T13:56:37.503Z,0.30
2023-04-28T13:59:06.126Z,0.10
2023-04-28T14:01:34.504Z,0.35
2023-04-28T14:04:03.338Z,0.00
2023-04-28T14:06:34.755Z,0.00
2023-04-28T14:09:03.536Z,0.05
2023-04-28T14:11:31.942Z,0.30
2023-04-28T14:14:00.294Z,0.30
2023-04-28T14:16:28.965Z,0.10
2023-04-28T14:18:57.374Z,0.15
2023-04-28T14:21:25.717Z,0.20
2023-04-28T14:23:55.416Z,0.30
2023-04-28T14:26:23.896Z,0.20
2023-04-28T14:28:52.230Z,0.20
2023-04-28T14:31:20.525Z,0.20
2023-04-28T14:33:48.894Z,0.25
2023-04-28T14:36:17.323Z,0.10
2023-04-28T14:38:45.808Z,0.10
2023-04-28T14:41:15.492Z,0.10
2023-04-28T14:43:44.862Z,0.20
2023-04-28T14:46:13.421Z,0.10
2023-04-28T14:48:41.833Z,0.13
2023-04-28T14:51:10.451Z,0.20
2023-04-28T14:53:38.782Z,0.10
2023-04-28T14:56:18.007Z,0.20
2023-04-28T14:58:49.353Z,0.20
2023-04-28T15:01:18.417Z,0.10
2023-04-28T15:03:47.338Z,0.20
2023-04-28T15:06:15.785Z,0.03
2023-04-28T15:08:44.123Z,0.10
2023-04-28T15:11:12.425Z,0.00
2023-04-28T15:13:43.047Z,0.30
2023-04-28T15:16:12.938Z,0.10
2023-04-28T15:18:41.226Z,0.45
2023-04-28T15:21:09.604Z,0.10
2023-04-28T15:23:37.919Z,0.10
2023-04-28T15:26:06.674Z,0.30
2023-04-28T15:28:35.280Z,0.20
2023-04-28T15:31:04.974Z,0.15
2023-04-28T15:33:34.871Z,0.30
2023-04-28T15:36:03.212Z,0.22
2023-04-28T15:38:31.980Z,0.13
2023-04-28T15:41:00.342Z,0.03
2023-04-28T15:43:28.630Z,0.20
2023-04-28T15:45:57.176Z,0.30
2023-04-28T15:48:25.544Z,0.52
2023-04-28T15:50:55.220Z,0.20
2023-04-28T15:53:24.739Z,0.60
2023-04-28T15:55:53.120Z,0.22
2023-04-28T15:58:21.590Z,0.30
2023-04-28T16:00:49.995Z,0.20
2023-04-28T16:03:18.712Z,0.10
2023-04-28T16:05:47.214Z,0.28
2023-04-28T16:08:16.937Z,0.10
2023-04-28T16:10:45.373Z,0.50
2023-04-28T16:13:13.703Z,0.22
2023-04-28T16:15:42.827Z,0.40
2023-04-28T16:18:11.300Z,0.17
2023-04-28T16:20:39.628Z,0.47
2023-04-28T16:23:08.159Z,0.38
2023-04-28T16:25:37.943Z,0.30
2023-04-28T16:28:07.054Z,0.38
2023-04-28T16:30:35.900Z,0.10
2023-04-28T16:33:05.125Z,0.22
2023-04-28T16:35:33.477Z,0.22
2023-04-28T16:38:01.760Z,0.17
2023-04-28T16:40:30.163Z,0.05
2023-04-28T16:42:59.862Z,0.20
2023-04-28T16:45:28.159Z,0.10
2023-04-28T16:47:56.539Z,0.40
2023-04-28T16:50:25.010Z,0.25
2023-04-28T16:52:53.308Z,0.20
2023-04-28T16:55:21.648Z,0.20
2023-04-28T16:57:50.078Z,0.20
2023-04-28T17:00:20.647Z,0.28
2023-04-28T17:02:49.053Z,0.15
2023-04-28T17:05:17.508Z,0.30
2023-04-28T17:07:45.866Z,0.15
2023-04-28T17:10:14.375Z,0.20
2023-04-28T17:12:45.300Z,0.17
2023-04-28T17:15:17.066Z,0.43
2023-04-28T17:17:48.514Z,0.32
2023-04-28T17:20:19.905Z,0.25
2023-04-28T17:22:48.640Z,0.73
2023-04-28T17:25:17.067Z,0.20
2023-04-28T17:27:45.399Z,0.40
2023-04-28T17:30:14.326Z,0.68
2023-04-28T17:32:42.777Z,0.20
2023-04-28T17:35:12.746Z,0.32
2023-04-28T17:37:41.093Z,0.20
2023-04-28T17:40:10.087Z,0.68
2023-04-28T17:42:38.453Z,0.40
2023-04-28T17:45:07.541Z,0.75
2023-04-28T17:47:36.428Z,0.85
2023-04-28T17:50:04.958Z,0.45
2023-04-28T17:52:34.867Z,0.40
2023-04-28T17:55:03.391Z,0.20
2023-04-28T17:57:32.411Z,0.55
2023-04-28T18:00:00.923Z,0.20
2023-04-28T18:02:29.331Z,0.20
2023-04-28T18:04:57.742Z,0.30
2023-04-28T18:07:27.367Z,0.38
2023-04-28T18:09:58.806Z,0.40
2023-04-28T18:12:28.259Z,0.20
2023-04-28T18:14:57.750Z,0.30
2023-04-28T18:17:26.203Z,0.40
2023-04-28T18:19:56.721Z,0.20
2023-04-28T18:22:25.349Z,0.52
2023-04-28T18:24:54.531Z,0.60
2023-04-28T18:27:24.210Z,0.73
2023-04-28T18:29:52.566Z,0.45
2023-04-28T18:32:20.857Z,0.65
2023-04-28T18:34:49.317Z,0.60
2023-04-28T18:37:17.995Z,0.50
2023-04-28T18:39:46.559Z,0.70
2023-04-28T18:42:14.959Z,0.50
2023-04-28T18:44:44.680Z,0.50
2023-04-28T18:47:13.165Z,0.20
2023-04-28T18:49:41.898Z,0.60
2023-04-28T18:52:10.381Z,1.00
2023-04-28T18:54:38.786Z,0.32
2023-04-28T18:57:07.579Z,0.40
2023-04-28T18:59:35.889Z,0.43
2023-04-28T19:02:05.790Z,0.32
2023-04-28T19:04:34.309Z,0.25
2023-04-28T19:07:02.827Z,0.40
2023-04-28T19:09:39.100Z,0.28
2023-04-28T19:12:07.748Z,0.40
2023-04-28T19:14:36.143Z,0.43
2023-04-28T19:17:05.221Z,0.40
2023-04-28T19:19:33.682Z,0.25
2023-04-28T19:22:03.208Z,0.30
2023-04-28T19:24:31.652Z,0.25
2023-04-28T19:27:01.675Z,0.43
2023-04-28T19:29:32.761Z,0.28
2023-04-28T19:32:01.141Z,0.30
2023-04-28T19:34:30.671Z,0.20
2023-04-28T19:36:59.102Z,0.45
2023-04-28T19:39:29.205Z,0.10
2023-04-28T19:41:58.599Z,0.32
2023-04-28T19:44:28.309Z,0.20
2023-04-28T19:46:56.661Z,0.40
2023-04-28T19:49:24.984Z,0.50
2023-04-28T19:51:53.304Z,0.20
2023-04-28T19:54:21.598Z,0.40
2023-04-28T19:56:49.875Z,0.20
2023-04-28T19:59:18.337Z,0.35
2023-04-28T20:01:49.146Z,0.50
2023-04-28T20:04:18.371Z,0.20
2023-04-28T20:06:47.780Z,0.30
2023-04-28T20:09:16.591Z,0.20
2023-04-28T20:11:44.993Z,0.25
2023-04-28T20:14:14.076Z,0.20
2023-04-28T20:16:42.407Z,0.20
2023-04-28T20:19:12.153Z,0.38
2023-04-28T20:21:41.954Z,0.50
2023-04-28T20:24:10.286Z,0.47
2023-04-28T20:26:38.866Z,0.30
2023-04-28T20:29:08.517Z,0.47
2023-04-28T20:31:37.254Z,0.17
2023-04-28T20:34:05.862Z,0.30
2023-04-28T20:36:35.641Z,0.15
2023-04-28T20:39:04.330Z,0.20
2023-04-28T20:41:32.702Z,0.32
2023-04-28T20:44:01.330Z,0.30
2023-04-28T20:46:30.555Z,0.30
2023-04-28T20:48:59.573Z,0.10
2023-04-28T20:51:28.922Z,0.25
2023-04-28T20:53:59.021Z,0.30
2023-04-28T20:56:27.560Z,0.28
2023-04-28T20:58:56.577Z,0.40
2023-04-28T21:01:24.998Z,0.20
2023-04-28T21:03:53.430Z,0.30
2023-04-28T21:06:21.870Z,0.32
2023-04-28T21:08:50.341Z,1.00
2023-04-28T21:11:20.374Z,0.20
2023-04-28T21:13:48.922Z,0.95
2023-04-28T21:16:20.656Z,0.20
2023-04-28T21:18:49.972Z,0.10
2023-04-28T21:21:18.722Z,0.30
2023-04-28T21:23:47.111Z,0.32
2023-04-28T21:26:15.568Z,0.15
2023-04-28T21:28:45.319Z,0.20
2023-04-28T21:31:13.694Z,0.10
2023-04-28T21:33:42.013Z,0.10
2023-04-28T21:36:10.463Z,0.20
2023-04-28T21:38:39.063Z,0.20
2023-04-28T21:41:08.888Z,0.35
2023-04-28T21:43:37.520Z,0.20
2023-04-28T21:46:07.444Z,0.10
2023-04-28T21:48:37.458Z,0.17
2023-04-28T21:51:05.917Z,0.30
2023-04-28T21:53:34.303Z,0.47
2023-04-28T21:56:03.283Z,0.13
2023-04-28T21:58:31.629Z,0.40
2023-04-28T22:01:00.980Z,0.10
2023-04-28T22:03:31.403Z,0.15
2023-04-28T22:06:00.250Z,0.10
2023-04-28T22:08:28.629Z,0.43
2023-04-28T22:10:57.012Z,0.10
2023-04-28T22:13:25.308Z,0.30
2023-04-28T22:15:53.955Z,0.05
2023-04-28T22:18:22.412Z,0.10
2023-04-28T22:20:52.670Z,0.17
2023-04-28T22:23:21.267Z,0.20
2023-04-28T22:25:49.572Z,0.20
2023-04-28T22:28:17.974Z,0.30
2023-04-28T22:30:46.795Z,0.20
2023-04-28T22:33:15.141Z,0.13
2023-04-28T22:35:43.482Z,0.15
2023-04-28T22:38:13.161Z,0.13
2023-04-28T22:40:41.466Z,0.10
2023-04-28T22:43:10.070Z,0.00
2023-04-28T22:45:38.374Z,0.17
2023-04-28T22:48:07.160Z,0.10
2023-04-28T22:50:35.648Z,0.10
2023-04-28T22:53:04.625Z,0.10
2023-04-28T22:55:34.401Z,0.22
2023-04-28T22:58:02.814Z,0.10
2023-04-28T23:00:31.156Z,0.10
2023-04-28T23:02:59.689Z,0.05
2023-04-28T23:05:28.062Z,0.10
2023-04-28T23:07:56.648Z,0.10
2023-04-28T23:10:24.960Z,0.15
2023-04-28T23:12:54.611Z,0.47
2023-04-28T23:15:22.962Z,0.05
2023-04-28T23:17:51.306Z,0.08
2023-04-28T23:20:19.677Z,0.20
2023-04-28T23:22:47.936Z,0.10
2023-04-28T23:25:16.453Z,0.20
2023-04-28T23:27:44.895Z,0.10
2023-04-28T23:30:15.185Z,0.30
2023-04-28T23:32:43.656Z,0.30
2023-04-28T23:35:11.974Z,0.10
2023-04-28T23:37:40.299Z,0.03
2023-04-28T23:40:09.268Z,0.20
2023-04-28T23:42:37.775Z,0.10
2023-04-28T23:47:36.476Z,0.00
2023-04-28T23:50:04.978Z,0.10
2023-04-28T23:52:33.350Z,0.13
2023-04-28T23:55:01.859Z,0.20
2023-04-28T23:57:30.199Z,0.20
2023-04-28T23:59:58.520Z,0.10
